createdAt,value
2019-05-11T00:00:43.500Z,13.20
2019-05-11T00:03:16.897Z,13.20
2019-05-11T00:05:46.771Z,13.20
2019-05-11T00:08:17.307Z,13.10
2019-05-11T00:10:48.286Z,13.10
2019-05-11T00:13:19.328Z,12.90
2019-05-11T00:15:49.949Z,12.70
2019-05-11T00:18:20.921Z,12.60
2019-05-11T00:20:52.047Z,12.60
2019-05-11T00:23:22.592Z,12.50
2019-05-11T00:25:53.272Z,12.50
2019-05-11T00:28:23.938Z,12.50
2019-05-11T00:30:54.579Z,12.50
2019-05-11T00:33:25.226Z,12.50
2019-05-11T00:35:55.867Z,12.50
2019-05-11T00:38:28.417Z,12.40
2019-05-11T00:41:00.207Z,12.40
2019-05-11T00:43:30.776Z,12.40
2019-05-11T00:46:02.879Z,12.40
2019-05-11T00:48:34.569Z,12.40
2019-05-11T00:51:05.097Z,12.30
2019-05-11T00:53:36.136Z,12.30
2019-05-11T00:56:06.666Z,12.40
2019-05-11T00:58:37.144Z,12.40
2019-05-11T01:01:08.095Z,12.40
2019-05-11T01:03:39.108Z,12.40
2019-05-11T01:06:09.736Z,12.40
2019-05-11T01:08:40.639Z,12.40
2019-05-11T01:11:11.168Z,12.40
2019-05-11T01:13:41.695Z,12.40
2019-05-11T01:16:12.310Z,12.40
2019-05-11T01:18:43.312Z,12.40
2019-05-11T01:21:14.364Z,12.30
2019-05-11T01:23:44.877Z,12.40
2019-05-11T01:26:16.473Z,12.30
2019-05-11T01:28:46.971Z,12.30
2019-05-11T01:31:17.549Z,12.30
2019-05-11T01:33:50.689Z,12.20
2019-05-11T01:36:21.213Z,12.30
2019-05-11T01:38:51.753Z,12.30
2019-05-11T01:41:22.348Z,12.20
2019-05-11T01:43:52.910Z,12.20
2019-05-11T01:46:23.429Z,12.20
2019-05-11T01:48:53.994Z,12.20
2019-05-11T01:51:24.503Z,12.20
2019-05-11T01:53:55.081Z,12.10
2019-05-11T01:56:25.592Z,12.20
2019-05-11T01:58:56.153Z,12.10
2019-05-11T02:01:26.714Z,12.20
2019-05-11T02:03:57.167Z,12.20
2019-05-11T02:06:27.714Z,12.20
2019-05-11T02:08:59.078Z,12.20
2019-05-11T02:11:30.557Z,12.20
2019-05-11T02:14:02.616Z,12.20
2019-05-11T02:16:33.108Z,12.20
2019-05-11T02:19:03.759Z,12.20
2019-05-11T02:21:34.774Z,12.20
2019-05-11T02:24:05.314Z,12.20
2019-05-11T02:26:35.810Z,12.20
2019-05-11T02:29:06.340Z,12.20
2019-05-11T02:31:38.219Z,12.20
2019-05-11T02:34:08.792Z,12.20
2019-05-11T02:36:39.280Z,12.20
2019-05-11T02:39:10.383Z,12.20
2019-05-11T02:41:40.842Z,12.10
2019-05-11T02:44:11.892Z,12.10
2019-05-11T02:46:42.479Z,12.00
2019-05-11T02:49:14.020Z,11.90
2019-05-11T02:51:45.074Z,11.80
2019-05-11T02:54:15.717Z,11.80
2019-05-11T02:56:46.213Z,11.80
2019-05-11T02:59:16.790Z,11.80
2019-05-11T03:01:47.363Z,11.80
2019-05-11T03:04:18.378Z,11.80
2019-05-11T03:06:48.850Z,11.80
2019-05-11T03:09:19.373Z,11.80
2019-05-11T03:11:55.713Z,11.80
2019-05-11T03:14:22.451Z,11.90
2019-05-11T03:17:10.641Z,11.90
2019-05-11T03:19:41.145Z,11.90
2019-05-11T03:22:11.654Z,11.90
2019-05-11T03:24:43.370Z,11.90
2019-05-11T03:27:13.873Z,12.00
2019-05-11T03:29:45.421Z,12.00
2019-05-11T03:32:15.921Z,12.00
2019-05-11T03:34:46.470Z,12.00
2019-05-11T03:37:17.006Z,12.00
2019-05-11T03:39:47.561Z,12.00
2019-05-11T03:42:18.099Z,12.00
2019-05-11T03:44:48.604Z,11.90
2019-05-11T03:47:19.566Z,11.90
2019-05-11T03:49:50.117Z,12.00
2019-05-11T03:52:20.587Z,12.00
2019-05-11T03:54:51.091Z,12.00
2019-05-11T03:57:21.645Z,12.00
2019-05-11T03:59:52.117Z,12.00
2019-05-11T04:02:23.193Z,12.00
2019-05-11T04:04:53.724Z,12.00
2019-05-11T04:07:24.295Z,11.90
2019-05-11T04:09:54.802Z,12.00
2019-05-11T04:12:34.757Z,11.90
2019-05-11T04:14:58.410Z,12.00
2019-05-11T04:17:29.000Z,12.00
2019-05-11T04:19:59.554Z,12.00
2019-05-11T04:22:30.027Z,12.00
2019-05-11T04:25:01.537Z,12.00
2019-05-11T04:27:32.089Z,12.00
2019-05-11T04:30:02.593Z,12.00
2019-05-11T04:32:33.283Z,12.00
2019-05-11T04:35:04.363Z,12.00
2019-05-11T04:37:35.650Z,12.00
2019-05-11T04:40:07.400Z,12.00
2019-05-11T04:42:53.463Z,11.90
2019-05-11T04:45:10.398Z,11.90
2019-05-11T04:47:42.010Z,11.80
2019-05-11T04:50:12.712Z,11.80
2019-05-11T04:52:43.763Z,11.70
2019-05-11T04:55:14.762Z,11.80
2019-05-11T04:57:45.268Z,11.80
2019-05-11T05:00:16.713Z,11.80
2019-05-11T05:02:47.233Z,11.80
2019-05-11T05:05:18.277Z,11.90
2019-05-11T05:07:50.592Z,11.90
2019-05-11T05:10:22.396Z,11.90
2019-05-11T05:12:54.861Z,11.90
2019-05-11T05:15:25.309Z,11.90
2019-05-11T05:17:55.914Z,11.90
2019-05-11T05:20:26.464Z,11.90
2019-05-11T05:22:57.503Z,11.90
2019-05-11T05:25:27.992Z,11.90
2019-05-11T05:27:58.960Z,11.90
2019-05-11T05:30:30.370Z,11.80
2019-05-11T05:33:00.882Z,11.80
2019-05-11T05:35:31.413Z,11.80
2019-05-11T05:38:02.504Z,11.80
2019-05-11T05:40:33.013Z,11.80
2019-05-11T05:43:04.005Z,11.80
2019-05-11T05:45:34.605Z,11.80
2019-05-11T05:48:05.131Z,11.70
2019-05-11T05:50:36.022Z,11.60
2019-05-11T05:53:06.529Z,11.60
2019-05-11T05:55:37.074Z,11.70
2019-05-11T05:58:07.641Z,11.60
2019-05-11T06:00:38.620Z,11.50
2019-05-11T06:03:10.129Z,11.40
2019-05-11T06:05:41.244Z,11.40
2019-05-11T06:08:12.313Z,11.30
2019-05-11T06:10:42.884Z,11.30
2019-05-11T06:13:13.553Z,11.40
2019-05-11T06:15:44.898Z,11.40
2019-05-11T06:18:15.532Z,11.60
2019-05-11T06:20:48.124Z,11.80
2019-05-11T06:23:18.827Z,12.00
2019-05-11T06:25:50.154Z,12.20
2019-05-11T06:28:28.530Z,12.40
2019-05-11T06:30:59.108Z,12.50
2019-05-11T06:33:30.016Z,12.50
2019-05-11T06:36:02.337Z,12.50
2019-05-11T06:38:33.048Z,12.30
2019-05-11T06:41:03.685Z,12.30
2019-05-11T06:43:34.277Z,12.30
2019-05-11T06:46:05.017Z,12.20
2019-05-11T06:48:36.802Z,12.10
2019-05-11T06:51:07.713Z,11.90
2019-05-11T06:53:39.304Z,11.80
2019-05-11T06:56:10.541Z,11.70
2019-05-11T06:58:45.064Z,11.60
2019-05-11T07:01:14.659Z,11.60
2019-05-11T07:03:45.281Z,11.60
2019-05-11T07:06:16.270Z,11.60
2019-05-11T07:08:48.600Z,11.60
2019-05-11T07:11:19.666Z,11.60
2019-05-11T07:13:50.229Z,11.70
2019-05-11T07:16:20.854Z,11.90
2019-05-11T07:18:51.449Z,12.00
2019-05-11T07:21:21.991Z,12.20
2019-05-11T07:23:54.354Z,12.20
2019-05-11T07:26:29.111Z,12.30
2019-05-11T07:29:00.327Z,12.40
2019-05-11T07:31:31.763Z,12.60
2019-05-11T07:34:03.404Z,12.80
2019-05-11T07:36:35.521Z,12.90
2019-05-11T07:39:12.998Z,13.10
2019-05-11T07:41:43.935Z,13.40
2019-05-11T07:44:15.929Z,13.80
2019-05-11T07:46:48.307Z,13.90
2019-05-11T07:49:23.481Z,14.10
2019-05-11T07:51:58.903Z,14.40
2019-05-11T07:54:32.162Z,14.30
2019-05-11T07:57:03.282Z,14.30
2019-05-11T07:59:35.233Z,14.30
2019-05-11T08:02:08.885Z,14.10
2019-05-11T08:04:40.789Z,14.00
2019-05-11T08:07:11.842Z,13.90
2019-05-11T08:09:42.473Z,14.10
2019-05-11T08:12:13.505Z,14.30
2019-05-11T08:14:56.457Z,14.40
2019-05-11T08:17:18.655Z,14.40
2019-05-11T08:19:49.895Z,14.30
2019-05-11T08:22:22.897Z,14.20
2019-05-11T08:24:52.828Z,14.30
2019-05-11T08:27:23.820Z,14.30
2019-05-11T08:29:54.431Z,14.30
2019-05-11T08:32:25.296Z,14.20
2019-05-11T08:34:58.049Z,14.10
2019-05-11T08:37:28.732Z,14.00
2019-05-11T08:39:59.752Z,14.00
2019-05-11T08:42:30.328Z,14.00
2019-05-11T08:45:16.086Z,14.10
2019-05-11T08:47:33.751Z,14.10
2019-05-11T08:50:04.416Z,14.20
2019-05-11T08:52:35.021Z,14.30
2019-05-11T08:55:05.669Z,14.40
2019-05-11T08:57:38.700Z,14.70
2019-05-11T09:00:14.687Z,14.80
2019-05-11T09:02:50.509Z,15.00
2019-05-11T09:05:19.920Z,15.30
2019-05-11T09:07:50.772Z,15.90
2019-05-11T09:10:22.766Z,16.30
2019-05-11T09:12:53.898Z,16.80
2019-05-11T09:15:35.960Z,17.30
2019-05-11T09:17:57.815Z,17.80
2019-05-11T09:20:28.694Z,18.00
2019-05-11T09:22:59.356Z,18.00
2019-05-11T09:25:30.385Z,18.40
2019-05-11T09:28:01.129Z,18.90
2019-05-11T09:30:32.312Z,19.10
2019-05-11T09:33:03.793Z,19.00
2019-05-11T09:35:46.643Z,18.70
2019-05-11T09:38:08.044Z,18.30
2019-05-11T09:40:39.352Z,17.70
2019-05-11T09:43:10.790Z,17.40
2019-05-11T09:45:48.331Z,17.10
2019-05-11T09:48:14.042Z,16.90
2019-05-11T09:50:45.395Z,16.60
2019-05-11T09:53:17.673Z,16.50
2019-05-11T09:55:49.085Z,16.40
2019-05-11T09:58:20.605Z,16.50
2019-05-11T10:00:51.181Z,16.40
2019-05-11T10:03:22.200Z,16.30
2019-05-11T10:05:53.223Z,16.20
2019-05-11T10:08:24.485Z,16.20
2019-05-11T10:10:55.267Z,16.10
2019-05-11T10:13:27.868Z,16.10
2019-05-11T10:16:04.399Z,16.20
2019-05-11T10:18:30.561Z,16.30
2019-05-11T10:21:01.250Z,16.40
2019-05-11T10:23:31.910Z,16.30
2019-05-11T10:26:04.230Z,16.20
2019-05-11T10:29:29.747Z,16.20
2019-05-11T10:32:01.191Z,16.00
2019-05-11T10:34:32.420Z,15.80
2019-05-11T10:37:08.362Z,15.70
2019-05-11T10:39:38.441Z,15.50
2019-05-11T10:42:10.641Z,15.40
2019-05-11T10:44:41.285Z,15.40
2019-05-11T10:47:13.104Z,15.50
2019-05-11T10:49:44.772Z,15.60
2019-05-11T10:52:17.852Z,15.60
2019-05-11T10:54:53.448Z,15.50
2019-05-11T10:57:28.142Z,15.40
2019-05-11T11:00:01.871Z,15.30
2019-05-11T11:02:33.561Z,15.20
2019-05-11T11:05:04.789Z,15.10
2019-05-11T11:07:38.139Z,15.00
2019-05-11T11:10:11.737Z,14.90
2019-05-11T11:12:42.905Z,14.90
2019-05-11T11:18:48.567Z,14.80
2019-05-11T11:21:30.904Z,14.70
2019-05-11T11:24:01.928Z,14.60
2019-05-11T11:26:32.889Z,14.60
2019-05-11T11:29:04.093Z,14.50
2019-05-11T11:31:37.435Z,14.50
2019-05-11T11:34:15.582Z,14.50
2019-05-11T11:36:48.073Z,14.40
2019-05-11T11:39:19.551Z,14.40
2019-05-11T11:41:50.919Z,14.40
2019-05-11T11:44:21.705Z,14.50
2019-05-11T11:46:55.284Z,14.50
2019-05-11T11:49:25.103Z,14.60
2019-05-11T11:51:58.992Z,14.60
2019-05-11T11:54:30.248Z,14.60
2019-05-11T11:57:07.727Z,14.60
2019-05-11T11:59:48.073Z,14.70
2019-05-11T12:02:54.185Z,14.60
2019-05-11T12:06:17.963Z,14.50
2019-05-11T12:08:49.784Z,14.40
2019-05-11T12:11:27.969Z,14.10
2019-05-11T12:13:59.655Z,14.00
2019-05-11T12:17:07.102Z,13.90
2019-05-11T12:20:40.515Z,13.90
2019-05-11T12:23:52.573Z,13.90
2019-05-11T12:27:49.036Z,13.90
2019-05-11T12:30:40.307Z,13.90
2019-05-11T12:33:20.456Z,14.20
2019-05-11T12:36:11.655Z,14.20
2019-05-11T12:41:54.071Z,14.00
2019-05-11T12:44:24.701Z,13.90
2019-05-11T12:46:58.166Z,13.90
2019-05-11T12:49:29.149Z,13.90
2019-05-11T12:52:00.119Z,13.90
2019-05-11T12:54:33.932Z,13.90
2019-05-11T12:57:03.289Z,14.00
2019-05-11T12:59:33.922Z,14.00
2019-05-11T13:02:05.226Z,14.00
2019-05-11T13:04:35.605Z,13.90
2019-05-11T13:07:08.579Z,13.90
2019-05-11T13:09:39.718Z,13.80
2019-05-11T13:12:10.363Z,13.70
2019-05-11T13:14:41.447Z,13.60
2019-05-11T13:17:11.999Z,13.50
2019-05-11T13:19:43.013Z,13.40
2019-05-11T13:22:14.024Z,13.30
2019-05-11T13:24:44.943Z,13.20
2019-05-11T13:27:17.867Z,13.10
2019-05-11T13:29:49.102Z,13.00
2019-05-11T13:32:20.142Z,13.00
2019-05-11T13:34:50.657Z,13.00
2019-05-11T13:37:21.533Z,12.90
2019-05-11T13:39:52.135Z,12.90
2019-05-11T13:42:23.343Z,12.80
2019-05-11T13:44:54.405Z,12.70
2019-05-11T13:47:24.958Z,12.70
2019-05-11T13:49:55.593Z,12.70
2019-05-11T13:52:28.603Z,12.80
2019-05-11T13:54:59.062Z,12.70
2019-05-11T13:57:30.637Z,12.70
2019-05-11T14:00:02.394Z,12.70
2019-05-11T14:02:33.665Z,12.80
2019-05-11T14:05:04.183Z,12.80
2019-05-11T14:07:34.825Z,12.80
2019-05-11T14:10:08.032Z,12.80
2019-05-11T14:12:38.830Z,12.90
2019-05-11T14:15:10.283Z,12.90
2019-05-11T14:17:41.221Z,12.90
2019-05-11T14:20:11.853Z,13.00
2019-05-11T14:22:42.429Z,13.00
2019-05-11T14:25:14.341Z,13.00
2019-05-11T14:27:47.316Z,13.00
2019-05-11T14:30:19.127Z,13.10
2019-05-11T14:32:49.820Z,13.10
2019-05-11T14:35:21.070Z,13.40
2019-05-11T14:37:51.596Z,13.60
2019-05-11T14:40:22.158Z,13.90
2019-05-11T14:42:52.701Z,14.10
2019-05-11T14:45:23.223Z,14.20
2019-05-11T14:47:54.442Z,14.30
2019-05-11T14:50:27.942Z,14.30
2019-05-11T14:52:58.264Z,14.20
2019-05-11T14:55:29.187Z,14.10
2019-05-11T14:58:00.344Z,14.00
2019-05-11T15:00:30.953Z,13.90
2019-05-11T15:03:01.457Z,13.80
2019-05-11T15:05:32.149Z,13.60
2019-05-11T15:08:02.649Z,13.40
2019-05-11T15:10:33.219Z,13.20
2019-05-11T15:13:04.246Z,13.00
2019-05-11T15:15:35.711Z,12.90
2019-05-11T15:18:09.362Z,12.80
2019-05-11T15:20:39.921Z,12.80
2019-05-11T15:23:11.152Z,12.70
2019-05-11T15:25:41.788Z,12.70
2019-05-11T15:28:12.280Z,12.60
2019-05-11T15:30:42.842Z,12.60
2019-05-11T15:33:14.965Z,12.50
2019-05-11T15:35:47.927Z,12.60
2019-05-11T15:38:18.587Z,12.70
2019-05-11T15:40:49.586Z,12.80
2019-05-11T15:43:20.390Z,12.70
2019-05-11T15:45:50.965Z,12.80
2019-05-11T15:48:21.521Z,12.80
2019-05-11T15:50:52.245Z,12.90
2019-05-11T15:53:22.827Z,13.00
2019-05-11T15:55:53.376Z,13.10
2019-05-11T15:58:24.497Z,13.00
2019-05-11T16:00:54.954Z,13.00
2019-05-11T16:03:25.604Z,13.00
2019-05-11T16:05:58.243Z,13.00
2019-05-11T16:08:29.024Z,12.90
2019-05-11T16:10:59.465Z,12.90
2019-05-11T16:13:30.225Z,13.00
2019-05-11T16:16:01.913Z,12.80
2019-05-11T16:18:32.410Z,12.90
2019-05-11T16:21:03.891Z,12.90
2019-05-11T16:23:34.580Z,12.90
2019-05-11T16:26:05.602Z,12.90
2019-05-11T16:28:38.237Z,12.90
2019-05-11T16:31:09.222Z,13.00
2019-05-11T16:33:41.482Z,13.10
2019-05-11T16:36:12.661Z,13.00
2019-05-11T16:38:43.777Z,13.00
2019-05-11T16:41:14.365Z,12.90
2019-05-11T16:43:47.845Z,12.80
2019-05-11T16:46:17.789Z,12.60
2019-05-11T16:48:48.495Z,12.60
2019-05-11T16:51:19.359Z,12.60
2019-05-11T16:53:49.906Z,12.60
2019-05-11T16:56:21.386Z,12.70
2019-05-11T16:58:54.584Z,12.60
2019-05-11T17:01:24.035Z,12.50
2019-05-11T17:03:57.778Z,12.50
2019-05-11T17:06:28.591Z,12.50
2019-05-11T17:08:59.819Z,12.50
2019-05-11T17:11:30.333Z,12.40
2019-05-11T17:14:03.203Z,12.50
2019-05-11T17:16:34.437Z,12.50
2019-05-11T17:19:07.906Z,12.50
2019-05-11T17:21:38.820Z,12.50
2019-05-11T17:24:09.855Z,12.50
2019-05-11T17:26:47.695Z,12.50
2019-05-11T17:29:21.074Z,12.50
2019-05-11T17:31:52.109Z,12.50
2019-05-11T17:34:23.518Z,12.50
2019-05-11T17:36:57.086Z,12.40
2019-05-11T17:39:28.131Z,12.40
2019-05-11T17:41:58.920Z,12.30
2019-05-11T17:44:30.364Z,12.20
2019-05-11T17:47:00.937Z,12.20
2019-05-11T17:49:32.265Z,12.20
2019-05-11T17:52:04.033Z,12.20
2019-05-11T17:54:34.575Z,12.10
2019-05-11T17:57:05.252Z,12.10
2019-05-11T17:59:38.483Z,12.00
2019-05-11T18:02:09.464Z,12.00
2019-05-11T18:04:40.219Z,11.90
2019-05-11T18:07:24.242Z,11.90
2019-05-11T18:09:43.174Z,11.90
2019-05-11T18:12:14.802Z,11.80
2019-05-11T18:14:48.066Z,11.80
2019-05-11T18:17:17.976Z,11.70
2019-05-11T18:19:49.001Z,11.70
2019-05-11T18:22:19.993Z,11.70
2019-05-11T18:24:50.517Z,11.60
2019-05-11T18:27:20.985Z,11.60
2019-05-11T18:29:52.133Z,11.50
2019-05-11T18:32:23.064Z,11.50
2019-05-11T18:34:54.466Z,11.50
2019-05-11T18:37:24.929Z,11.50
2019-05-11T18:39:55.449Z,11.50
2019-05-11T18:42:25.997Z,11.40
2019-05-11T18:44:58.083Z,11.40
2019-05-11T18:47:29.961Z,11.50
2019-05-11T18:50:00.711Z,11.40
2019-05-11T18:52:32.401Z,11.40
2019-05-11T18:55:03.417Z,11.40
2019-05-11T18:57:34.800Z,11.30
2019-05-11T19:00:08.165Z,11.30
2019-05-11T19:02:38.950Z,11.30
2019-05-11T19:05:09.464Z,11.20
2019-05-11T19:07:40.480Z,11.20
2019-05-11T19:10:11.565Z,11.20
2019-05-11T19:12:42.164Z,11.20
2019-05-11T19:15:12.626Z,11.10
2019-05-11T19:17:43.178Z,11.10
2019-05-11T19:20:13.727Z,11.10
2019-05-11T19:22:44.671Z,11.00
2019-05-11T19:25:17.971Z,11.00
2019-05-11T19:27:50.606Z,11.00
2019-05-11T19:30:20.562Z,10.90
2019-05-11T19:32:51.084Z,10.90
2019-05-11T19:35:21.667Z,10.80
2019-05-11T19:37:53.083Z,10.80
2019-05-11T19:40:24.252Z,10.70
2019-05-11T19:42:55.744Z,10.70
2019-05-11T19:45:29.072Z,10.60
2019-05-11T19:47:58.680Z,10.60
2019-05-11T19:50:30.286Z,10.60
2019-05-11T19:53:01.383Z,10.50
2019-05-11T19:55:32.431Z,10.50
2019-05-11T19:58:03.361Z,10.50
2019-05-11T20:00:34.518Z,10.50
2019-05-11T20:03:05.476Z,10.50
2019-05-11T20:05:38.035Z,10.50
2019-05-11T20:08:08.693Z,10.50
2019-05-11T20:10:39.719Z,10.40
2019-05-11T20:13:10.310Z,10.40
2019-05-11T20:15:40.888Z,10.50
2019-05-11T20:18:15.125Z,10.40
2019-05-11T20:20:48.002Z,10.40
2019-05-11T20:23:18.396Z,10.40
2019-05-11T20:25:48.920Z,10.40
2019-05-11T20:28:20.018Z,10.40
2019-05-11T20:30:51.649Z,10.40
2019-05-11T20:33:22.246Z,10.30
2019-05-11T20:35:52.820Z,10.30
2019-05-11T20:38:23.380Z,10.30
2019-05-11T20:40:53.968Z,10.30
2019-05-11T20:43:27.885Z,10.30
2019-05-11T20:45:58.229Z,10.30
2019-05-11T20:48:28.833Z,10.20
2019-05-11T20:50:59.365Z,10.20
2019-05-11T20:53:31.277Z,10.20
2019-05-11T20:56:01.889Z,10.20
2019-05-11T20:58:54.844Z,10.10
2019-05-11T21:01:28.563Z,10.10
2019-05-11T21:03:59.929Z,10.10
2019-05-11T21:06:31.954Z,10.10
2019-05-11T21:09:03.415Z,10.10
2019-05-11T21:11:34.042Z,10.10
2019-05-11T21:14:07.757Z,10.10
2019-05-11T21:16:38.668Z,10.10
2019-05-11T21:19:09.870Z,10.00
2019-05-11T21:21:50.195Z,10.00
2019-05-11T21:24:12.985Z,9.90
2019-05-11T21:27:02.400Z,9.90
2019-05-11T21:29:34.376Z,9.90
2019-05-11T21:32:05.149Z,9.80
2019-05-11T21:34:38.187Z,9.80
2019-05-11T21:37:07.934Z,9.70
2019-05-11T21:39:38.639Z,9.60
2019-05-11T21:42:09.800Z,9.70
2019-05-11T21:44:40.352Z,9.70
2019-05-11T21:47:11.463Z,9.60
2019-05-11T21:49:42.476Z,9.60
2019-05-11T21:52:13.039Z,9.50
2019-05-11T21:54:43.557Z,9.60
2019-05-11T21:57:14.128Z,9.60
2019-05-11T21:59:45.848Z,9.60
2019-05-11T22:02:18.488Z,9.60
2019-05-11T22:04:49.328Z,9.60
2019-05-11T22:07:23.087Z,9.60
2019-05-11T22:09:53.036Z,9.60
2019-05-11T22:12:24.294Z,9.60
2019-05-11T22:14:57.899Z,9.60
2019-05-11T22:17:30.841Z,9.50
2019-05-11T22:20:00.718Z,9.50
2019-05-11T22:22:31.947Z,9.40
2019-05-11T22:25:03.676Z,9.40
2019-05-11T22:27:34.608Z,9.30
2019-05-11T22:30:08.175Z,9.30
2019-05-11T22:32:38.964Z,9.30
2019-05-11T22:35:09.594Z,9.30
2019-05-11T22:37:40.784Z,9.30
2019-05-11T22:40:19.045Z,9.30
2019-05-11T22:42:49.776Z,9.30
2019-05-11T22:45:21.402Z,9.30
2019-05-11T22:47:53.493Z,9.20
2019-05-11T22:50:24.876Z,9.10
2019-05-11T22:52:58.571Z,9.00
2019-05-11T22:55:29.685Z,9.00
2019-05-11T22:58:00.449Z,8.80
2019-05-11T23:00:42.428Z,8.80
2019-05-11T23:03:13.826Z,8.80
2019-05-11T23:05:47.715Z,8.80
2019-05-11T23:08:32.613Z,8.80
2019-05-11T23:11:10.453Z,8.70
2019-05-11T23:13:42.952Z,8.70
2019-05-11T23:16:18.001Z,8.70
2019-05-11T23:18:52.066Z,8.70
2019-05-11T23:21:25.053Z,8.70
2019-05-11T23:23:58.194Z,8.60
2019-05-11T23:26:29.507Z,8.60
2019-05-11T23:29:03.767Z,8.60
2019-05-11T23:31:34.558Z,8.60
2019-05-11T23:34:08.351Z,8.60
2019-05-11T23:36:40.528Z,8.60
2019-05-11T23:39:11.277Z,8.60
2019-05-11T23:41:42.408Z,8.70
2019-05-11T23:44:13.146Z,8.60
2019-05-11T23:46:44.003Z,8.60
2019-05-11T23:49:18.007Z,8.60
2019-05-11T23:51:48.147Z,8.50
2019-05-11T23:54:18.783Z,8.50
2019-05-11T23:56:50.096Z,8.50
2019-05-11T23:59:20.669Z,8.60
